Terminal Aerodrome Forecast
Issued by NWS

Home | Current Version | Previous Version | Text Only | Print | Product List | Glossary On
Versions: 1 2 3 4 5 6 7 8 9 10 11 12 13 14 15 16
000
FTUS43 KAPX 020520
TAFTVC
TAF
KTVC 020520Z 0206/0306 20010KT P6SM SCT250 WS010/21050KT
     FM021200 21011G19KT P6SM SCT040 WS005/21040KT
     FM021600 22010G17KT 5SM -SHRA OVC040
     FM021900 34008KT P6SM SCT012 BKN250=

USA.gov is the U.S. government's official web portal to all federal, state and local government web resources and services.